Loma Mar, California
Current Conditions -  °F | °C
As of 6:47 AM on Thursday 30 Oct 2014 (Local Time) from KPAO Reporting Station
Broken Clouds Broken Clouds  
Wind Chill: 55°   Ceiling: 20000
Heat Index: 55°   Visibility: 10mi
Dew Point: 54°   Wind: 5mph
Humidity: 94%   Direction: NA
Pressure: 29.92"   Gusts: NA
Location:  37.27°N, 122.31°W
Report Text: KPAO 301347Z VRB04KT 10SM BKN200 13/12 A2992
Loading
Personal Weather Stations






























Interactive Weather Map New forecast layout! Learn more

10-Day Weather Forecast

Advertisements
Track Severe Weather on mobile